createdAt,value
2018-07-01T00:01:42.179Z,39.24
2018-07-01T00:04:08.141Z,39.46
2018-07-01T00:06:34.116Z,37.88
2018-07-01T00:09:00.092Z,38.23
2018-07-01T00:11:26.030Z,38.30
2018-07-01T00:13:52.019Z,37.45
2018-07-01T00:16:17.964Z,37.07
2018-07-01T00:18:43.922Z,37.87
2018-07-01T00:21:09.877Z,38.32
2018-07-01T00:23:35.846Z,37.30
2018-07-01T00:26:01.820Z,37.10
2018-07-01T00:28:27.781Z,37.62
2018-07-01T00:30:53.758Z,37.64
2018-07-01T00:33:19.694Z,37.88
2018-07-01T00:35:45.642Z,37.16
2018-07-01T00:38:11.595Z,36.99
2018-07-01T00:40:37.551Z,37.32
2018-07-01T00:43:03.483Z,37.64
2018-07-01T00:45:29.416Z,38.12
2018-07-01T00:47:55.350Z,37.99
2018-07-01T00:50:21.301Z,37.24
2018-07-01T00:52:47.250Z,37.88
2018-07-01T00:55:13.202Z,39.11
2018-07-01T00:57:39.181Z,38.51
2018-07-01T01:00:05.139Z,38.90
2018-07-01T01:02:31.148Z,39.69
2018-07-01T01:04:57.092Z,39.48
2018-07-01T01:07:23.017Z,39.94
2018-07-01T01:09:48.974Z,40.20
2018-07-01T01:12:14.934Z,40.08
2018-07-01T01:14:40.880Z,39.87
2018-07-01T01:17:06.885Z,40.60
2018-07-01T01:19:32.843Z,39.44
2018-07-01T01:21:58.814Z,40.88
2018-07-01T01:24:24.776Z,41.79
2018-07-01T01:26:50.721Z,41.59
2018-07-01T01:29:16.693Z,41.01
2018-07-01T01:31:42.682Z,41.05
2018-07-01T01:34:08.666Z,40.38
2018-07-01T01:36:34.621Z,39.98
2018-07-01T01:39:00.561Z,40.71
2018-07-01T01:41:26.564Z,39.76
2018-07-01T01:43:52.506Z,40.44
2018-07-01T01:46:18.440Z,40.44
2018-07-01T01:48:44.380Z,40.57
2018-07-01T01:51:10.337Z,40.08
2018-07-01T01:53:36.273Z,40.43
2018-07-01T01:56:02.199Z,39.72
2018-07-01T01:58:28.141Z,40.73
2018-07-01T02:00:54.090Z,40.91
2018-07-01T02:03:20.048Z,40.90
2018-07-01T02:05:46.047Z,40.57
2018-07-01T02:08:11.993Z,40.69
2018-07-01T02:10:37.928Z,40.42
2018-07-01T02:13:03.860Z,41.48
2018-07-01T02:15:29.814Z,41.90
2018-07-01T02:17:55.764Z,41.96
2018-07-01T02:20:21.721Z,42.15
2018-07-01T02:22:47.672Z,41.57
2018-07-01T02:25:13.658Z,42.13
2018-07-01T02:27:39.612Z,42.79
2018-07-01T02:30:05.564Z,42.87
2018-07-01T02:32:31.503Z,43.09
2018-07-01T02:34:57.455Z,42.85
2018-07-01T02:37:23.405Z,43.91
2018-07-01T02:39:49.339Z,43.09
2018-07-01T02:42:15.328Z,42.95
2018-07-01T02:44:41.288Z,42.47
2018-07-01T02:47:07.244Z,43.65
2018-07-01T02:49:33.195Z,44.39
2018-07-01T02:51:59.159Z,43.20
2018-07-01T02:54:25.117Z,43.58
2018-07-01T02:56:51.116Z,43.46
2018-07-01T02:59:17.051Z,44.32
2018-07-01T03:01:43.022Z,43.56
2018-07-01T03:04:08.981Z,44.51
2018-07-01T03:06:34.956Z,44.92
2018-07-01T03:09:00.900Z,45.97
2018-07-01T03:11:26.920Z,45.53
2018-07-01T03:13:52.866Z,44.93
2018-07-01T03:16:18.833Z,45.37
2018-07-01T03:18:44.773Z,45.38
2018-07-01T03:21:10.697Z,45.13
2018-07-01T03:23:36.642Z,45.02
2018-07-01T03:26:02.592Z,45.07
2018-07-01T03:28:28.540Z,44.61
2018-07-01T03:30:54.491Z,45.77
2018-07-01T03:33:20.437Z,45.78
2018-07-01T03:35:46.388Z,45.87
2018-07-01T03:38:12.352Z,45.43
2018-07-01T03:40:38.308Z,46.33
2018-07-01T03:43:04.323Z,45.58
2018-07-01T03:45:30.319Z,45.00
2018-07-01T03:47:56.268Z,46.05
2018-07-01T03:50:22.293Z,45.38
2018-07-01T03:52:48.296Z,45.34
2018-07-01T03:55:14.278Z,45.96
2018-07-01T03:57:40.281Z,46.24
2018-07-01T04:00:06.247Z,46.50
2018-07-01T04:02:32.196Z,46.33
2018-07-01T04:04:58.937Z,46.43
2018-07-01T04:07:24.915Z,46.16
2018-07-01T04:09:50.893Z,46.87
2018-07-01T04:12:16.853Z,46.69
2018-07-01T04:14:42.805Z,46.26
2018-07-01T04:17:08.801Z,47.61
2018-07-01T04:19:34.748Z,48.17
2018-07-01T04:22:00.720Z,48.42
2018-07-01T04:24:26.668Z,47.01
2018-07-01T04:26:52.609Z,46.85
2018-07-01T04:29:18.582Z,47.50
2018-07-01T04:31:44.599Z,48.31
2018-07-01T04:34:10.562Z,47.50
2018-07-01T04:36:36.506Z,48.37
2018-07-01T04:39:02.483Z,46.93
2018-07-01T04:41:28.525Z,45.93
2018-07-01T04:43:54.479Z,45.82
2018-07-01T04:46:20.415Z,44.81
2018-07-01T04:48:46.356Z,44.60
2018-07-01T04:51:12.312Z,43.95
2018-07-01T04:53:38.271Z,42.38
2018-07-01T04:56:04.211Z,41.91
2018-07-01T04:58:30.177Z,41.42
2018-07-01T05:00:56.139Z,41.39
2018-07-01T05:03:22.131Z,40.45
2018-07-01T05:05:48.080Z,40.25
2018-07-01T05:08:14.040Z,39.41
2018-07-01T05:10:39.977Z,39.73
2018-07-01T05:13:05.945Z,38.81
2018-07-01T05:15:31.950Z,39.13
2018-07-01T05:17:57.900Z,39.27
2018-07-01T05:20:23.855Z,38.34
2018-07-01T05:22:49.823Z,38.31
2018-07-01T05:25:15.767Z,36.86
2018-07-01T05:27:41.725Z,36.74
2018-07-01T05:30:07.643Z,37.55
2018-07-01T05:32:33.576Z,38.00
2018-07-01T05:34:59.556Z,36.30
2018-07-01T05:37:25.503Z,36.53
2018-07-01T05:39:51.461Z,34.64
2018-07-01T05:42:17.414Z,33.55
2018-07-01T05:44:43.371Z,35.60
2018-07-01T05:47:09.334Z,33.54
2018-07-01T05:49:35.280Z,34.66
2018-07-01T05:52:02.250Z,33.93
2018-07-01T05:54:28.211Z,34.47
2018-07-01T05:56:54.146Z,32.46
2018-07-01T05:59:20.114Z,32.73
2018-07-01T06:01:46.092Z,33.80
2018-07-01T06:04:12.069Z,33.20
2018-07-01T06:06:38.010Z,31.82
2018-07-01T06:09:03.975Z,32.34
2018-07-01T06:11:29.921Z,31.92
2018-07-01T06:13:55.893Z,32.15
2018-07-01T06:16:21.839Z,32.46
2018-07-01T06:18:47.802Z,31.93
2018-07-01T06:21:15.760Z,31.96
2018-07-01T06:23:41.722Z,31.57
2018-07-01T06:26:07.687Z,31.17
2018-07-01T06:28:33.640Z,31.89
2018-07-01T06:30:59.596Z,31.20
2018-07-01T06:33:25.560Z,29.00
2018-07-01T06:35:51.527Z,30.13
2018-07-01T06:38:17.469Z,29.79
2018-07-01T06:40:43.423Z,29.81
2018-07-01T06:43:09.363Z,30.15
2018-07-01T06:45:35.297Z,28.71
2018-07-01T06:48:01.262Z,28.88
2018-07-01T06:50:27.212Z,29.09
2018-07-01T06:52:53.161Z,26.82
2018-07-01T06:55:19.175Z,27.52
2018-07-01T06:57:45.125Z,29.30
2018-07-01T07:00:11.085Z,28.75
2018-07-01T07:02:37.036Z,26.57
2018-07-01T07:05:03.099Z,25.35
2018-07-01T07:07:29.036Z,24.77
2018-07-01T07:09:55.005Z,24.86
2018-07-01T07:12:20.953Z,23.64
2018-07-01T07:14:46.916Z,24.18
2018-07-01T07:17:12.852Z,23.42
2018-07-01T07:19:38.792Z,23.42
2018-07-01T07:22:04.741Z,23.30
2018-07-01T07:24:30.751Z,24.32
2018-07-01T07:26:56.657Z,24.43
2018-07-01T07:29:22.606Z,23.84
2018-07-01T07:31:48.594Z,23.95
2018-07-01T07:34:14.581Z,23.34
2018-07-01T07:36:40.544Z,23.13
2018-07-01T07:39:06.510Z,23.92
2018-07-01T07:41:32.465Z,24.94
2018-07-01T07:43:58.432Z,23.73
2018-07-01T07:46:24.443Z,24.89
2018-07-01T07:48:50.444Z,24.71
2018-07-01T07:51:16.399Z,24.29
2018-07-01T07:53:42.374Z,23.85
2018-07-01T07:56:08.320Z,24.76
2018-07-01T07:58:34.284Z,26.46
2018-07-01T08:01:00.260Z,26.22
2018-07-01T08:03:26.219Z,25.62
2018-07-01T08:05:52.185Z,25.13
2018-07-01T08:08:18.112Z,25.90
2018-07-01T08:10:44.086Z,25.94
2018-07-01T08:13:10.155Z,25.73
2018-07-01T08:15:36.076Z,26.60
2018-07-01T08:18:02.049Z,26.27
2018-07-01T08:20:28.019Z,27.19
2018-07-01T08:22:53.973Z,26.91
2018-07-01T08:25:20.001Z,27.58
2018-07-01T08:27:45.954Z,27.40
2018-07-01T08:30:11.939Z,28.15
2018-07-01T08:32:37.917Z,28.56
2018-07-01T08:35:03.869Z,26.61
2018-07-01T08:37:29.798Z,27.24
2018-07-01T08:39:55.768Z,27.97
2018-07-01T08:42:21.720Z,29.42
2018-07-01T08:44:47.668Z,31.55
2018-07-01T08:47:13.603Z,29.11
2018-07-01T08:49:39.534Z,30.12
2018-07-01T08:52:05.478Z,28.32
2018-07-01T08:54:31.443Z,28.74
2018-07-01T08:56:57.433Z,28.89
2018-07-01T08:59:23.440Z,29.36
2018-07-01T09:01:49.384Z,28.67
2018-07-01T09:04:15.311Z,30.45
2018-07-01T09:06:41.257Z,28.75
2018-07-01T09:09:07.216Z,31.12
2018-07-01T09:11:33.184Z,29.70
2018-07-01T09:13:59.144Z,29.69
2018-07-01T09:16:25.128Z,29.46
2018-07-01T09:18:51.073Z,29.43
2018-07-01T09:21:17.044Z,29.79
2018-07-01T09:23:42.992Z,30.42
2018-07-01T09:26:09.006Z,29.63
2018-07-01T09:28:34.960Z,29.54
2018-07-01T09:31:00.905Z,29.85
2018-07-01T09:33:26.841Z,29.58
2018-07-01T09:35:52.813Z,30.19
2018-07-01T09:38:18.765Z,29.46
2018-07-01T09:40:44.739Z,29.80
2018-07-01T09:43:10.706Z,30.09
2018-07-01T09:45:36.877Z,30.08
2018-07-01T09:48:02.824Z,29.84
2018-07-01T09:50:28.907Z,29.28
2018-07-01T09:52:54.737Z,30.49
2018-07-01T09:55:20.793Z,30.96
2018-07-01T09:57:46.747Z,30.99
2018-07-01T10:00:12.681Z,31.03
2018-07-01T10:02:38.631Z,31.11
2018-07-01T10:05:04.653Z,31.17
2018-07-01T10:07:30.658Z,30.94
2018-07-01T10:09:56.705Z,31.98
2018-07-01T10:12:22.655Z,31.55
2018-07-01T10:14:48.674Z,31.50
2018-07-01T10:17:14.645Z,32.46
2018-07-01T10:19:40.641Z,30.93
2018-07-01T10:22:06.603Z,32.32
2018-07-01T10:24:32.694Z,33.05
2018-07-01T10:26:58.663Z,32.50
2018-07-01T10:29:24.668Z,32.14
2018-07-01T10:31:50.621Z,33.79
2018-07-01T10:34:16.595Z,32.91
2018-07-01T10:36:42.579Z,34.36
2018-07-01T10:39:08.553Z,33.42
2018-07-01T10:41:34.519Z,32.92
2018-07-01T10:44:00.509Z,32.85
2018-07-01T10:46:26.475Z,32.40
2018-07-01T10:48:52.517Z,32.15
2018-07-01T10:51:18.518Z,32.88
2018-07-01T10:53:44.550Z,32.97
2018-07-01T10:56:10.518Z,32.74
2018-07-01T10:58:36.498Z,33.47
2018-07-01T11:01:02.444Z,33.59
2018-07-01T11:03:28.447Z,33.88
2018-07-01T11:05:54.453Z,32.37
2018-07-01T11:08:20.431Z,32.99
2018-07-01T11:10:46.547Z,33.00
2018-07-01T11:13:12.510Z,32.57
2018-07-01T11:15:38.516Z,33.03
2018-07-01T11:18:04.488Z,32.63
2018-07-01T11:20:30.555Z,32.04
2018-07-01T11:22:56.550Z,31.69
2018-07-01T11:25:22.821Z,31.79
2018-07-01T11:27:48.777Z,31.90
2018-07-01T11:30:14.727Z,32.46
2018-07-01T11:32:40.795Z,30.94
2018-07-01T11:35:06.750Z,31.56
2018-07-01T11:37:32.718Z,31.97
2018-07-01T11:39:58.658Z,31.67
2018-07-01T11:42:24.599Z,31.61
2018-07-01T11:44:50.593Z,32.02
2018-07-01T11:47:16.597Z,32.07
2018-07-01T11:49:42.524Z,31.84
2018-07-01T11:52:08.507Z,32.56
2018-07-01T11:54:34.489Z,33.51
2018-07-01T11:57:00.464Z,32.73
2018-07-01T11:59:26.478Z,32.38
2018-07-01T12:01:52.515Z,31.54
2018-07-01T12:04:18.433Z,31.90
2018-07-01T12:06:44.406Z,32.44
2018-07-01T12:09:10.382Z,32.44
2018-07-01T12:11:36.342Z,30.18
2018-07-01T12:14:02.289Z,31.60
2018-07-01T12:16:28.249Z,31.42
2018-07-01T12:18:54.385Z,30.59
2018-07-01T12:21:20.340Z,32.42
2018-07-01T12:23:46.301Z,30.55
2018-07-01T12:26:12.256Z,30.46
2018-07-01T12:28:38.230Z,30.99
2018-07-01T12:31:04.230Z,30.82
2018-07-01T12:33:30.238Z,31.12
2018-07-01T12:35:56.171Z,31.99
2018-07-01T12:38:22.141Z,31.15
2018-07-01T12:40:48.099Z,32.94
2018-07-01T12:43:14.049Z,31.81
2018-07-01T12:45:39.991Z,31.65
2018-07-01T12:48:05.977Z,32.68
2018-07-01T12:50:31.948Z,30.42
2018-07-01T12:52:57.924Z,31.39
2018-07-01T12:55:23.916Z,30.79
2018-07-01T12:57:49.853Z,31.91
2018-07-01T13:00:15.825Z,32.02
2018-07-01T13:02:41.841Z,31.48
2018-07-01T13:05:07.780Z,30.39
2018-07-01T13:07:33.783Z,30.78
2018-07-01T13:09:59.719Z,31.85
2018-07-01T13:12:25.703Z,31.94
2018-07-01T13:14:51.649Z,31.15
2018-07-01T13:17:17.632Z,31.00
2018-07-01T13:19:43.648Z,31.84
2018-07-01T13:22:09.600Z,32.85
2018-07-01T13:24:35.556Z,32.25
2018-07-01T13:27:01.613Z,30.83
2018-07-01T13:29:27.600Z,29.58
2018-07-01T13:31:53.576Z,29.79
2018-07-01T13:34:19.512Z,30.86
2018-07-01T13:36:45.445Z,31.14
2018-07-01T13:39:11.420Z,30.67
2018-07-01T13:41:37.387Z,31.35
2018-07-01T13:44:03.338Z,31.11
2018-07-01T13:46:29.284Z,31.12
2018-07-01T13:48:55.228Z,30.79
2018-07-01T13:51:21.203Z,31.20
2018-07-01T13:53:47.190Z,30.19
2018-07-01T13:56:13.148Z,30.67
2018-07-01T13:58:39.136Z,30.45
2018-07-01T14:01:05.207Z,31.61
2018-07-01T14:03:31.151Z,30.03
2018-07-01T14:05:57.158Z,31.80
2018-07-01T14:08:23.150Z,32.26
2018-07-01T14:10:49.110Z,30.13
2018-07-01T14:13:15.061Z,29.84
2018-07-01T14:15:41.031Z,31.36
2018-07-01T14:18:06.995Z,30.00
2018-07-01T14:20:32.942Z,29.09
2018-07-01T14:22:58.907Z,29.05
2018-07-01T14:25:24.883Z,29.89
2018-07-01T14:27:50.827Z,30.35
2018-07-01T14:30:16.799Z,29.47
2018-07-01T14:32:42.785Z,30.09
2018-07-01T14:35:08.750Z,29.73
2018-07-01T14:37:34.754Z,29.35
2018-07-01T14:40:01.016Z,29.96
2018-07-01T14:42:27.071Z,30.72
2018-07-01T14:44:53.090Z,30.94
2018-07-01T14:47:19.118Z,30.50
2018-07-01T14:49:45.126Z,30.70
2018-07-01T14:52:11.206Z,31.27
2018-07-01T14:54:37.262Z,30.35
2018-07-01T14:57:03.223Z,30.60
2018-07-01T14:59:29.213Z,29.91
2018-07-01T15:01:55.172Z,29.23
2018-07-01T15:04:21.123Z,29.27
2018-07-01T15:06:47.107Z,28.96
2018-07-01T15:09:13.061Z,29.30
2018-07-01T15:11:39.025Z,29.51
2018-07-01T15:14:05.087Z,29.86
2018-07-01T15:16:31.085Z,29.86
2018-07-01T15:18:57.068Z,30.12
2018-07-01T15:21:23.120Z,29.55
2018-07-01T15:23:49.074Z,28.34
2018-07-01T15:26:15.105Z,28.98
2018-07-01T15:28:41.091Z,28.47
2018-07-01T15:31:07.062Z,28.95
2018-07-01T15:33:33.092Z,28.42
2018-07-01T15:35:59.057Z,28.39
2018-07-01T15:38:25.127Z,29.62
2018-07-01T15:40:51.105Z,29.21
2018-07-01T15:43:17.074Z,28.90
2018-07-01T15:45:43.046Z,28.53
2018-07-01T15:48:09.022Z,29.17
2018-07-01T15:50:35.038Z,28.94
2018-07-01T15:53:00.984Z,28.22
2018-07-01T15:55:26.992Z,28.43
2018-07-01T15:57:52.975Z,27.71
2018-07-01T16:00:18.957Z,28.47
2018-07-01T16:02:45.009Z,29.56
2018-07-01T16:05:10.993Z,29.27
2018-07-01T16:07:36.955Z,28.12
2018-07-01T16:10:02.966Z,28.30
2018-07-01T16:12:28.938Z,28.36
2018-07-01T16:14:54.956Z,28.30
2018-07-01T16:17:21.980Z,28.42
2018-07-01T16:19:47.992Z,28.28
2018-07-01T16:22:13.925Z,27.90
2018-07-01T16:24:39.882Z,26.88
2018-07-01T16:27:05.843Z,27.96
2018-07-01T16:29:31.808Z,27.92
2018-07-01T16:31:57.801Z,27.52
2018-07-01T16:34:23.844Z,28.41
2018-07-01T16:36:49.838Z,27.04
2018-07-01T16:39:15.880Z,27.43
2018-07-01T16:41:41.838Z,27.52
2018-07-01T16:44:07.982Z,27.14
2018-07-01T16:46:34.000Z,27.58
2018-07-01T16:48:59.986Z,27.87
2018-07-01T16:51:26.105Z,27.38
2018-07-01T16:53:52.101Z,28.35
2018-07-01T16:56:18.048Z,28.25
2018-07-01T16:58:43.997Z,28.27
2018-07-01T17:01:09.972Z,27.43
2018-07-01T17:03:35.961Z,28.63
2018-07-01T17:06:02.131Z,27.99
2018-07-01T17:08:28.118Z,27.96
2018-07-01T17:10:54.045Z,28.19
2018-07-01T17:13:20.017Z,27.32
2018-07-01T17:15:45.992Z,27.46
2018-07-01T17:18:12.040Z,28.75
2018-07-01T17:20:38.003Z,28.71
2018-07-01T17:23:03.953Z,27.06
2018-07-01T17:25:29.962Z,27.13
2018-07-01T17:27:55.977Z,28.00
2018-07-01T17:30:21.928Z,26.88
2018-07-01T17:32:47.894Z,27.31
2018-07-01T17:35:13.947Z,26.87
2018-07-01T17:37:39.939Z,27.07
2018-07-01T17:40:05.910Z,26.96
2018-07-01T17:42:31.899Z,28.02
2018-07-01T17:44:57.956Z,27.04
2018-07-01T17:47:23.926Z,27.96
2018-07-01T17:49:49.917Z,27.38
2018-07-01T17:52:15.918Z,27.11
2018-07-01T17:54:42.044Z,27.76
2018-07-01T17:57:08.056Z,27.63
2018-07-01T17:59:34.068Z,28.26
2018-07-01T18:02:00.035Z,27.44
2018-07-01T18:04:26.030Z,27.38
2018-07-01T18:06:52.091Z,27.52
2018-07-01T18:09:18.098Z,27.90
2018-07-01T18:11:44.096Z,27.42
2018-07-01T18:14:10.148Z,28.35
2018-07-01T18:16:36.150Z,28.36
2018-07-01T18:19:02.105Z,29.36
2018-07-01T18:21:48.146Z,28.16
2018-07-01T18:24:19.504Z,27.81
2018-07-01T18:26:20.260Z,28.04
2018-07-01T18:28:55.763Z,29.29
2018-07-01T18:31:12.322Z,27.72
2018-07-01T18:33:38.351Z,28.32
2018-07-01T18:36:04.356Z,28.05
2018-07-01T18:38:30.332Z,28.29
2018-07-01T18:40:56.420Z,28.55
2018-07-01T18:43:22.521Z,28.64
2018-07-01T18:45:48.563Z,28.69
2018-07-01T18:48:14.602Z,28.28
2018-07-01T18:50:40.609Z,28.03
2018-07-01T18:53:06.582Z,29.20
2018-07-01T18:55:32.613Z,28.66
2018-07-01T18:57:58.652Z,29.11
2018-07-01T19:00:24.622Z,28.85
2018-07-01T19:02:50.631Z,29.48
2018-07-01T19:05:16.643Z,29.13
2018-07-01T19:07:43.668Z,28.86
2018-07-01T19:10:09.682Z,28.93
2018-07-01T19:12:35.735Z,29.82
2018-07-01T19:15:01.872Z,28.91
2018-07-01T19:17:27.854Z,30.03
2018-07-01T19:19:53.958Z,28.78
2018-07-01T19:22:19.955Z,28.98
2018-07-01T19:24:46.034Z,29.70
2018-07-01T19:27:13.102Z,29.52
2018-07-01T19:29:39.092Z,29.73
2018-07-01T19:32:05.145Z,29.94
2018-07-01T19:34:31.293Z,30.00
2018-07-01T19:36:57.407Z,29.53
2018-07-01T19:39:23.454Z,29.52
2018-07-01T19:41:49.431Z,30.04
2018-07-01T19:44:15.417Z,31.08
2018-07-01T19:46:41.609Z,30.38
2018-07-01T19:49:07.658Z,31.42
2018-07-01T19:51:33.654Z,31.07
2018-07-01T19:53:59.640Z,32.08
2018-07-01T19:56:25.657Z,32.45
2018-07-01T19:58:51.631Z,31.81
2018-07-01T20:01:17.612Z,32.43
2018-07-01T20:03:43.626Z,33.12
2018-07-01T20:06:09.634Z,33.52
2018-07-01T20:08:35.673Z,33.45
2018-07-01T20:11:01.664Z,34.52
2018-07-01T20:13:27.721Z,34.58
2018-07-01T20:15:53.716Z,35.17
2018-07-01T20:18:19.750Z,35.43
2018-07-01T20:20:45.758Z,34.59
2018-07-01T20:23:11.727Z,35.40
2018-07-01T20:25:37.832Z,35.22
2018-07-01T20:28:03.758Z,35.19
2018-07-01T20:30:29.742Z,34.65
2018-07-01T20:32:56.094Z,35.41
2018-07-01T20:35:22.127Z,35.15
2018-07-01T20:37:48.177Z,35.57
2018-07-01T20:40:14.209Z,35.19
2018-07-01T20:42:40.212Z,36.06
2018-07-01T20:45:06.310Z,35.62
2018-07-01T20:47:32.220Z,35.31
2018-07-01T20:49:58.171Z,35.52
2018-07-01T20:52:24.135Z,35.81
2018-07-01T20:54:50.176Z,36.45
2018-07-01T20:57:16.178Z,36.71
2018-07-01T20:59:42.190Z,35.90
2018-07-01T21:02:08.209Z,35.60
2018-07-01T21:04:34.220Z,36.20
2018-07-01T21:07:00.203Z,35.66
2018-07-01T21:09:28.371Z,36.04
2018-07-01T21:11:54.400Z,36.58
2018-07-01T21:14:20.386Z,36.58
2018-07-01T21:16:46.400Z,36.71
2018-07-01T21:19:12.419Z,36.46
2018-07-01T21:21:38.413Z,37.08
2018-07-01T21:24:04.431Z,37.80
2018-07-01T21:26:30.381Z,37.89
2018-07-01T21:28:56.372Z,37.82
2018-07-01T21:31:22.368Z,37.90
2018-07-01T21:33:48.386Z,37.95
2018-07-01T21:36:14.398Z,37.24
2018-07-01T21:38:40.405Z,37.47
2018-07-01T21:41:06.389Z,38.77
2018-07-01T21:43:32.480Z,38.06
2018-07-01T21:45:58.451Z,38.25
2018-07-01T21:48:24.419Z,37.39
2018-07-01T21:50:50.443Z,38.13
2018-07-01T21:53:16.445Z,38.35
2018-07-01T21:55:42.429Z,38.46
2018-07-01T21:58:08.407Z,39.07
2018-07-01T22:00:34.405Z,39.07
2018-07-01T22:03:00.411Z,39.55
2018-07-01T22:05:26.420Z,39.53
2018-07-01T22:07:52.395Z,39.98
2018-07-01T22:10:18.422Z,40.03
2018-07-01T22:12:44.410Z,40.09
2018-07-01T22:15:10.414Z,39.95
2018-07-01T22:17:36.404Z,39.82
2018-07-01T22:20:02.391Z,38.92
2018-07-01T22:22:28.377Z,39.26
2018-07-01T22:24:54.357Z,39.42
2018-07-01T22:27:20.352Z,39.49
2018-07-01T22:29:46.352Z,39.38
2018-07-01T22:32:12.326Z,38.63
2018-07-01T22:34:38.297Z,39.41
2018-07-01T22:37:04.251Z,38.94
2018-07-01T22:39:30.231Z,40.08
2018-07-01T22:41:56.226Z,39.59
2018-07-01T22:44:22.247Z,39.08
2018-07-01T22:46:48.225Z,39.67
2018-07-01T22:49:14.184Z,39.64
2018-07-01T22:51:40.169Z,39.63
2018-07-01T22:54:06.118Z,40.68
2018-07-01T22:56:32.138Z,40.57
2018-07-01T22:58:58.118Z,39.76
2018-07-01T23:01:24.102Z,40.24
2018-07-01T23:03:50.071Z,40.04
2018-07-01T23:06:16.049Z,40.63
2018-07-01T23:08:42.027Z,40.54
2018-07-01T23:11:08.028Z,40.95
2018-07-01T23:13:34.228Z,40.81
2018-07-01T23:16:00.207Z,41.46
2018-07-01T23:18:26.173Z,41.17
2018-07-01T23:20:52.163Z,40.54
2018-07-01T23:23:18.178Z,41.17
2018-07-01T23:25:44.173Z,41.07
2018-07-01T23:28:10.125Z,40.34
2018-07-01T23:30:36.076Z,40.45
2018-07-01T23:33:02.065Z,40.52
2018-07-01T23:35:28.081Z,40.52
2018-07-01T23:37:54.061Z,40.54
2018-07-01T23:40:20.053Z,41.01
2018-07-01T23:42:46.005Z,41.31
2018-07-01T23:45:11.980Z,41.36
2018-07-01T23:47:37.941Z,41.52
2018-07-01T23:50:03.915Z,40.54
2018-07-01T23:52:29.883Z,41.35
2018-07-01T23:54:55.857Z,41.89
2018-07-01T23:57:21.948Z,41.70
2018-07-01T23:59:47.902Z,42.13
